Airfield :
LOGIN :

Register | Disclaimer

   EN    FR    IT 

 










Legend :    VFR   Marginal VFR   IFR   Intensive IFR   Very Intensive IFR
Visi :
Ceiling :
>= 8 km
>= 3000ft
5 to 8 km
1000 to 3000 ft
1500m to 5 km
500 to 1000 ft
800 to 1500m
200 to 500 ft
< 800m
< 200 ft
Symbols :   Thunderstorms  Fog  Heavy snow  Heavy precipitations  Wind > 20 kt
SIGMETs :     Misc.  Thunderstorms  Icing  Turbulence  Mountain Waves  Volcanic Ashes







- Airport Elevation : 24 ft
- IATA code : FAO


LPFR - Faro

CURRENT METAR :
  • 270300Z 31008KT CAVOK 14/05 Q1010

EXPIRED METARs :
  • 270230Z 29007KT CAVOK 14/06 Q1010
  • 270200Z 32007KT CAVOK 14/07 Q1010
  • 270130Z 31010KT CAVOK 14/07 Q1010
  • 270100Z 32010KT CAVOK 14/07 Q1011
  • 270030Z 32009KT CAVOK 14/08 Q1011

TAF TAF LPFR
Valid from the 27 at 00:00 until the 28 at 00:00 UTC


262300Z 2700/2724 32008KT CAVOK
BECMG 2704/2706 VRB03KT 9999 SCT035
TEMPO 2704/2724 8000 -RA BKN030
BECMG 2709/2711 09008KT
BECMG 2713/2716 19010KT
BECMG 2718/2721 04005KT
No reported NOTAMs for that airfield.
2 SIGMETs reported for the Lisboa FIR (LPPC) :
 
Embedded thunderstorms
LPPC SIGMET 2 VALID 270300/270600 LPPT
LPPC LISBON FIR EMBD TS FCST S OF N3500 TOP FL350 MOV NE 15KT NC=
Embedded thunderstorms
LPPC SIGMET 1 VALID 270045/270300 LPPT
LPPC LISBON FIR EMBD TS FCST S OF N3500 TOP FL350 MOV NE 15KT NC=



MET'MAP, your aeronautical weather chart ! - Copyright ORBIFLY December 2007 - Disclaimer

ORBIFLY MET'MAP TEAM :

Programming & Development : Alexandra Zaïnal
Concept & Development : Baudouin d'Aumeries
Co-Development & Prog : Marc-Olivier Méhu
Technical & hardware support : Manuel Goepfert

Contact : metmap@orbifly.com




SOURCES & CREDITS :

   NOAA